Terminal Aerodrome Forecast
Issued by NWS

Current Version | Previous Version | Text Only | Print | Product List | Glossary On
Versions: 1 2 3 4 5 6 7 8 9 10 11 12 13 14 15 16 17 18 19 20 21 22
000
FTUS41 KGYX 071311 AAB
TAFLEB
TAF AMD
KLEB 071311Z 0713/0812 VRB03KT P6SM OVC025
     FM071600 20008KT 5SM -SHRA OVC025
     FM080600 20005KT 1 1/2SM BR OVC015=

USA.gov is the U.S. government's official web portal to all federal, state and local government web resources and services.